Polaris — JD2797 — position and weather

sailwx.info

Track history (hours):
 
Tides and Currents Weather Stations Pressure Air Temp Water Temp Dewpoint Dewpoint Depression Visibility Wind Speed Wind Dir Waves Ship Positions

Polaris

Last reported at 2015-Jul-27 21:34 UTC. Time now 2015-Jul-28 13:19 UTC.
Position N 35°19' E 139°38'.

Length 30 m; draft 2.6 m.

Type: Pilot. MMSI: 431000764.

Date/timePositionNaut miles runAvg speedWind from/ knotsBaromVisibWave heightAir tempDewpointWater temp
2015-Jul-27 21:34N 35°19' E 139°38'7 7.4
2015-Jul-27 20:33N 35°15' E 139°46'1312.6
2015-Jul-27 19:33N 35°27' E 139°43'3 3.0
2015-Jul-27 18:33N 35°24' E 139°42'6 5.6
2015-Jul-27 17:24N 35°19' E 139°38'0 0.0
2015-Jul-27 16:32N 35°19' E 139°38'0 0.0
2015-Jul-27 15:33N 35°19' E 139°38'0 0.0
2015-Jul-27 14:29N 35°19' E 139°38'0 0.0
2015-Jul-27 13:33N 35°19' E 139°38'0 0.0
2015-Jul-27 12:33N 35°19' E 139°38'0 0.0
2015-Jul-27 11:32N 35°19' E 139°38'0 0.0
2015-Jul-27 10:33N 35°19' E 139°38'0 0.0
2015-Jul-27 09:31N 35°19' E 139°38'4 4.2
2015-Jul-27 08:33N 35°21' E 139°42'3 2.6
2015-Jul-27 07:33N 35°20' E 139°45'10 9.8
2015-Jul-27 06:34N 35°11' E 139°47'1010.1
2015-Jul-27 05:32N 35°19' E 139°38'0 0.0
2015-Jul-25 05:15N 35°19' E 139°38'811.2
2015-Jul-25 04:33N 35°14' E 139°46'10 9.5
2015-Jul-25 03:34N 35°22' E 139°41'2 1.8
2015-Jul-25 02:33N 35°24' E 139°40'5 0.3
2015-Jul-24 08:15N 35°19' E 139°38'811.3
2015-Jul-24 07:33N 35°13' E 139°46'1110.9
2015-Jul-24 06:34N 35°24' E 139°43'1 1.3
2015-Jul-24 05:34N 35°25' E 139°43'2 1.6
2015-Jul-24 04:34N 35°24' E 139°42'5 0.2
2015-Jul-23 07:33N 35°20' E 139°41'1413.9
2015-Jul-23 06:33N 35°29' E 139°54'1 0.9
2015-Jul-23 05:34N 35°30' E 139°54'0 0.1
2015-Jul-23 04:33N 35°30' E 139°54'2 1.8
2015-Jul-23 03:33N 35°29' E 139°53'8 8.5
2015-Jul-23 02:33N 35°23' E 139°45'1110.9
2015-Jul-23 01:33N 35°12' E 139°47'5 5.2
2015-Jul-23 00:33N 35°17' E 139°45'1010.0
2015-Jul-22 23:33N 35°27' E 139°44'2 2.1
2015-Jul-22 22:33N 35°29' E 139°45'5 5.2
2015-Jul-22 21:33N 35°27' E 139°39'8 8.0
2015-Jul-22 20:33N 35°19' E 139°41'2 0.1
2015-Jul-22 03:20N 35°19' E 139°38'7 9.7
2015-Jul-22 02:34N 35°24' E 139°45'9 8.5
2015-Jul-22 01:33N 35°15' E 139°47'2 1.6
2015-Jul-22 00:32N 35°14' E 139°46'8 0.5
2015-Jul-21 10:29N 35°19' E 139°38'8 8.1
2015-Jul-21 09:32N 35°15' E 139°46'1211.9
2015-Jul-21 08:34N 35°26' E 139°42'1 0.5
2015-Jul-21 07:34N 35°26' E 139°42'8 0.8
2015-Jul-20 22:06N 35°19' E 139°38'4 7.7
2015-Jul-20 21:33N 35°20' E 139°43'9 8.6
2015-Jul-20 20:33N 35°11' E 139°46'22 0.5
2015-Jul-19 00:33N 35°32' E 139°56'8 8.0
2015-Jul-18 23:33N 35°36' E 140°05'2 1.9
2015-Jul-18 22:34N 35°35' E 140°03'1312.7
2015-Jul-18 21:33N 35°30' E 139°49'8 8.4
2015-Jul-18 20:33N 35°27' E 139°39'8 8.3
2015-Jul-18 19:33N 35°19' E 139°40'1 1.0
2015-Jul-18 18:27N 35°19' E 139°38'0 0.0
2015-Jul-18 17:29N 35°19' E 139°38'0 0.0
2015-Jul-18 16:33N 35°19' E 139°38'0 0.0
2015-Jul-18 15:28N 35°19' E 139°38'0 0.0
2015-Jul-18 14:31N 35°19' E 139°38'0 0.0
2015-Jul-18 13:33N 35°19' E 139°38'0 0.0
2015-Jul-18 12:33N 35°19' E 139°38'0 0.0
2015-Jul-18 11:29N 35°19' E 139°38'0 0.0
2015-Jul-18 10:25N 35°19' E 139°38'0 0.0
2015-Jul-18 09:33N 35°19' E 139°38'0 0.0
2015-Jul-18 08:33N 35°19' E 139°38'0 0.5
2015-Jul-18 07:33N 35°18' E 139°39'6 6.2
2015-Jul-18 06:33N 35°16' E 139°46'1111.1
2015-Jul-18 05:33N 35°27' E 139°42'3 3.1
2015-Jul-18 04:34N 35°23' E 139°42'6 5.7
2015-Jul-18 03:33N 35°19' E 139°38'0 0.0
2015-Jul-18 02:24N 35°19' E 139°38'0 0.0
2015-Jul-18 01:29N 35°19' E 139°38'0 0.0
2015-Jul-18 00:32N 35°19' E 139°38'0 0.0
2015-Jul-17 23:27N 35°19' E 139°38'0 0.0
2015-Jul-17 22:32N 35°19' E 139°38'  
Track history (hours):
 
Tides and Currents Weather Stations Pressure Air Temp Water Temp Dewpoint Dewpoint Depression Visibility Wind Speed Wind Dir Waves Ship Positions

Polaris

Last reported at 2015-Jul-27 21:34 UTC. Time now 2015-Jul-28 13:19 UTC.
Position N 35°19' E 139°38'.

Length 30 m; draft 2.6 m.

Type: Pilot. MMSI: 431000764.

Date/timePositionNaut miles runAvg speedWind from/ knotsBaromVisibWave heightAir tempDewpointWater temp
2015-Jul-27 21:34N 35°19' E 139°38'7 7.4
2015-Jul-27 20:33N 35°15' E 139°46'1312.6
2015-Jul-27 19:33N 35°27' E 139°43'3 3.0
2015-Jul-27 18:33N 35°24' E 139°42'6 5.6
2015-Jul-27 17:24N 35°19' E 139°38'0 0.0
2015-Jul-27 16:32N 35°19' E 139°38'0 0.0
2015-Jul-27 15:33N 35°19' E 139°38'0 0.0
2015-Jul-27 14:29N 35°19' E 139°38'0 0.0
2015-Jul-27 13:33N 35°19' E 139°38'0 0.0
2015-Jul-27 12:33N 35°19' E 139°38'0 0.0
2015-Jul-27 11:32N 35°19' E 139°38'0 0.0
2015-Jul-27 10:33N 35°19' E 139°38'0 0.0
2015-Jul-27 09:31N 35°19' E 139°38'4 4.2
2015-Jul-27 08:33N 35°21' E 139°42'3 2.6
2015-Jul-27 07:33N 35°20' E 139°45'10 9.8
2015-Jul-27 06:34N 35°11' E 139°47'1010.1
2015-Jul-27 05:32N 35°19' E 139°38'0 0.0
2015-Jul-25 05:15N 35°19' E 139°38'811.2
2015-Jul-25 04:33N 35°14' E 139°46'10 9.5
2015-Jul-25 03:34N 35°22' E 139°41'2 1.8
2015-Jul-25 02:33N 35°24' E 139°40'5 0.3
2015-Jul-24 08:15N 35°19' E 139°38'811.3
2015-Jul-24 07:33N 35°13' E 139°46'1110.9
2015-Jul-24 06:34N 35°24' E 139°43'1 1.3
2015-Jul-24 05:34N 35°25' E 139°43'2 1.6
2015-Jul-24 04:34N 35°24' E 139°42'5 0.2
2015-Jul-23 07:33N 35°20' E 139°41'1413.9
2015-Jul-23 06:33N 35°29' E 139°54'1 0.9
2015-Jul-23 05:34N 35°30' E 139°54'0 0.1
2015-Jul-23 04:33N 35°30' E 139°54'2 1.8
2015-Jul-23 03:33N 35°29' E 139°53'8 8.5
2015-Jul-23 02:33N 35°23' E 139°45'1110.9
2015-Jul-23 01:33N 35°12' E 139°47'5 5.2
2015-Jul-23 00:33N 35°17' E 139°45'1010.0
2015-Jul-22 23:33N 35°27' E 139°44'2 2.1
2015-Jul-22 22:33N 35°29' E 139°45'5 5.2
2015-Jul-22 21:33N 35°27' E 139°39'8 8.0
2015-Jul-22 20:33N 35°19' E 139°41'2 0.1
2015-Jul-22 03:20N 35°19' E 139°38'7 9.7
2015-Jul-22 02:34N 35°24' E 139°45'9 8.5
2015-Jul-22 01:33N 35°15' E 139°47'2 1.6
2015-Jul-22 00:32N 35°14' E 139°46'8 0.5
2015-Jul-21 10:29N 35°19' E 139°38'8 8.1
2015-Jul-21 09:32N 35°15' E 139°46'1211.9
2015-Jul-21 08:34N 35°26' E 139°42'1 0.5
2015-Jul-21 07:34N 35°26' E 139°42'8 0.8
2015-Jul-20 22:06N 35°19' E 139°38'4 7.7
2015-Jul-20 21:33N 35°20' E 139°43'9 8.6
2015-Jul-20 20:33N 35°11' E 139°46'22 0.5
2015-Jul-19 00:33N 35°32' E 139°56'8 8.0
2015-Jul-18 23:33N 35°36' E 140°05'2 1.9
2015-Jul-18 22:34N 35°35' E 140°03'1312.7
2015-Jul-18 21:33N 35°30' E 139°49'8 8.4
2015-Jul-18 20:33N 35°27' E 139°39'8 8.3
2015-Jul-18 19:33N 35°19' E 139°40'1 1.0
2015-Jul-18 18:27N 35°19' E 139°38'0 0.0
2015-Jul-18 17:29N 35°19' E 139°38'0 0.0
2015-Jul-18 16:33N 35°19' E 139°38'0 0.0
2015-Jul-18 15:28N 35°19' E 139°38'0 0.0
2015-Jul-18 14:31N 35°19' E 139°38'0 0.0
2015-Jul-18 13:33N 35°19' E 139°38'0 0.0
2015-Jul-18 12:33N 35°19' E 139°38'0 0.0
2015-Jul-18 11:29N 35°19' E 139°38'0 0.0
2015-Jul-18 10:25N 35°19' E 139°38'0 0.0
2015-Jul-18 09:33N 35°19' E 139°38'0 0.0
2015-Jul-18 08:33N 35°19' E 139°38'0 0.5
2015-Jul-18 07:33N 35°18' E 139°39'6 6.2
2015-Jul-18 06:33N 35°16' E 139°46'1111.1
2015-Jul-18 05:33N 35°27' E 139°42'3 3.1
2015-Jul-18 04:34N 35°23' E 139°42'6 5.7
2015-Jul-18 03:33N 35°19' E 139°38'0 0.0
2015-Jul-18 02:24N 35°19' E 139°38'0 0.0
2015-Jul-18 01:29N 35°19' E 139°38'0 0.0
2015-Jul-18 00:32N 35°19' E 139°38'0 0.0
2015-Jul-17 23:27N 35°19' E 139°38'0 0.0
2015-Jul-17 22:32N 35°19' E 139°38'  

Dump ship's entire track history